Time,TemperatureF,DewpointF,PressureIn,WindDirection,WindDirectionDegrees,WindSpeedMPH,WindSpeedGustMPH,Humidity,HourlyPrecipIn,Conditions,Clouds,dailyrainin,SolarRadiationWatts/m^2,SoftwareType,DateUTC
2013-12-09 00:42:00,32.0,22.0,-100.00,NE,55,2.0,7.0,65,0.00,,,-99.99,0.000000,,2013-12-09 05:42:00,
2013-12-09 01:42:00,33.0,23.0,-100.00,ENE,70,3.0,9.0,68,0.00,,,-99.99,0.000000,,2013-12-09 06:42:00,
2013-12-09 02:42:00,32.0,26.0,-100.00,ENE,73,4.0,10.0,78,0.00,,,-99.99,0.000000,,2013-12-09 07:42:00,
2013-12-09 03:22:00,32.0,28.0,-100.00,East,86,3.0,10.0,87,0.00,,,-99.99,0.000000,,2013-12-09 08:22:00,
2013-12-09 03:32:00,32.0,28.0,-100.00,East,86,3.0,10.0,87,0.00,,,-99.99,0.000000,,2013-12-09 08:32:00,
2013-12-09 03:42:00,32.0,28.0,-100.00,East,86,3.0,10.0,87,0.00,,,-99.99,0.000000,,2013-12-09 08:42:00,
2013-12-09 04:22:00,32.0,30.0,-100.00,ENE,73,3.0,-999.0,95,0.00,,,-99.99,,,2013-12-09 09:22:00,
2013-12-09 04:33:00,32.0,30.0,-100.00,ENE,73,3.0,-999.0,95,0.00,,,-99.99,,,2013-12-09 09:33:00,
2013-12-09 04:43:00,32.0,30.0,-100.00,ENE,73,3.0,-999.0,95,0.00,,,-99.99,,,2013-12-09 09:43:00,
2013-12-09 05:43:00,32.0,31.0,-100.00,East,85,3.0,9.0,97,0.00,,,-99.99,0.000000,,2013-12-09 10:43:00,
2013-12-09 06:42:00,33.0,32.0,-100.00,East,92,3.0,9.0,98,0.04,,,-99.99,0.000000,,2013-12-09 11:42:00,
2013-12-09 07:22:00,35.0,35.0,-100.00,ESE,111,7.0,-999.0,99,0.08,,,-99.99,,,2013-12-09 12:22:00,
2013-12-09 07:32:00,35.0,35.0,-100.00,ESE,111,7.0,-999.0,99,0.08,,,-99.99,,,2013-12-09 12:32:00,
2013-12-09 07:42:00,35.0,35.0,-100.00,ESE,111,7.0,-999.0,99,0.08,,,-99.99,,,2013-12-09 12:42:00,
2013-12-09 08:42:00,37.0,36.0,-100.00,ESE,117,8.0,16.0,99,0.08,,,-99.99,0.000000,,2013-12-09 13:42:00,
2013-12-09 09:42:00,38.0,37.0,-100.00,SE,127,10.0,22.0,98,0.06,,,-99.99,4.000000,,2013-12-09 14:42:00,
2013-12-09 10:43:00,40.0,38.0,-100.00,SE,127,11.0,22.0,96,0.02,,,-99.99,6.000000,,2013-12-09 15:43:00,
2013-12-09 11:43:00,41.0,40.0,-100.00,SE,134,9.0,21.0,95,0.06,,,-99.99,4.000000,,2013-12-09 16:43:00,
2013-12-09 12:42:00,42.0,41.0,-100.00,SE,132,5.0,10.0,97,0.08,,,-99.99,18.000000,,2013-12-09 17:42:00,
2013-12-09 13:22:00,43.0,42.0,-100.00,ESE,118,4.0,-999.0,98,0.01,,,-99.99,,,2013-12-09 18:22:00,
2013-12-09 13:32:00,43.0,42.0,-100.00,ESE,118,4.0,-999.0,98,0.01,,,-99.99,,,2013-12-09 18:32:00,
2013-12-09 13:43:00,43.0,42.0,-100.00,ESE,118,4.0,-999.0,98,0.01,,,-99.99,,,2013-12-09 18:43:00,
2013-12-09 14:43:00,44.0,44.0,-100.00,ESE,105,4.0,9.0,99,0.01,,,-99.99,21.000000,,2013-12-09 19:43:00,
2013-12-09 15:42:00,45.0,45.0,-100.00,ESE,115,4.0,8.0,99,0.01,,,-99.99,15.000000,,2013-12-09 20:42:00,
2013-12-09 16:44:00,45.0,45.0,-100.00,East,95,2.0,5.0,99,0.00,,,-99.99,4.000000,,2013-12-09 21:44:00,
2013-12-09 17:43:00,46.0,46.0,-100.00,NNW,327,3.0,6.0,99,0.01,,,-99.99,0.000000,,2013-12-09 22:43:00,
2013-12-09 18:43:00,44.0,44.0,-100.00,NW,321,4.0,6.0,99,0.00,,,-99.99,0.000000,,2013-12-09 23:43:00,
2013-12-09 19:22:00,43.0,43.0,-100.00,West,265,1.0,3.0,99,0.00,,,-99.99,0.000000,,2013-12-10 00:22:00,
2013-12-09 19:32:00,43.0,43.0,-100.00,West,265,1.0,3.0,99,0.00,,,-99.99,0.000000,,2013-12-10 00:32:00,
2013-12-09 19:42:00,43.0,43.0,-100.00,West,265,1.0,3.0,99,0.00,,,-99.99,0.000000,,2013-12-10 00:42:00,
2013-12-09 20:42:00,43.0,42.0,-100.00,WNW,291,3.0,9.0,99,0.00,,,-99.99,0.000000,,2013-12-10 01:42:00,
2013-12-09 21:42:00,43.0,43.0,-100.00,WNW,282,5.0,13.0,99,0.00,,,-99.99,0.000000,,2013-12-10 02:42:00,
2013-12-09 22:43:00,42.0,41.0,-100.00,WNW,302,8.0,18.0,99,0.00,,,-99.99,0.000000,,2013-12-10 03:43:00,
2013-12-09 23:43:00,40.0,40.0,-100.00,NW,304,7.0,15.0,97,0.00,,,-99.99,0.000000,,2013-12-10 04:43:00,